sensor_id;sensor_type;location;lat;lon;timestamp;P1;durP1;ratioP1;P2;durP2;ratioP2
72194;SDS011;60095;50.180;9.032;2022-07-22T00:00:18;4.40;;;3.80;;
72194;SDS011;60095;50.180;9.032;2022-07-22T00:02:45;4.60;;;4.20;;
72194;SDS011;60095;50.180;9.032;2022-07-22T00:05:11;3.55;;;3.25;;
72194;SDS011;60095;50.180;9.032;2022-07-22T00:07:39;5.03;;;4.53;;
72194;SDS011;60095;50.180;9.032;2022-07-22T00:10:06;7.45;;;4.97;;
72194;SDS011;60095;50.180;9.032;2022-07-22T00:12:33;5.18;;;4.68;;
72194;SDS011;60095;50.180;9.032;2022-07-22T00:15:00;6.13;;;4.90;;
72194;SDS011;60095;50.180;9.032;2022-07-22T00:17:26;11.85;;;5.80;;
72194;SDS011;60095;50.180;9.032;2022-07-22T00:19:52;7.82;;;5.00;;
72194;SDS011;60095;50.180;9.032;2022-07-22T00:22:19;10.98;;;6.07;;
72194;SDS011;60095;50.180;9.032;2022-07-22T00:24:46;6.90;;;3.88;;
72194;SDS011;60095;50.180;9.032;2022-07-22T00:27:13;4.32;;;3.58;;
72194;SDS011;60095;50.180;9.032;2022-07-22T00:29:39;5.47;;;4.70;;
72194;SDS011;60095;50.180;9.032;2022-07-22T00:32:05;4.85;;;4.45;;
72194;SDS011;60095;50.180;9.032;2022-07-22T00:34:32;7.25;;;5.53;;
72194;SDS011;60095;50.180;9.032;2022-07-22T00:36:58;5.03;;;4.57;;
72194;SDS011;60095;50.180;9.032;2022-07-22T00:39:24;10.30;;;4.38;;
72194;SDS011;60095;50.180;9.032;2022-07-22T00:41:52;5.32;;;4.82;;
72194;SDS011;60095;50.180;9.032;2022-07-22T00:44:18;5.00;;;4.50;;
72194;SDS011;60095;50.180;9.032;2022-07-22T00:46:45;7.22;;;3.92;;
72194;SDS011;60095;50.180;9.032;2022-07-22T00:49:11;4.72;;;4.03;;
72194;SDS011;60095;50.180;9.032;2022-07-22T00:51:38;7.38;;;4.45;;
72194;SDS011;60095;50.180;9.032;2022-07-22T00:54:05;6.15;;;4.88;;
72194;SDS011;60095;50.180;9.032;2022-07-22T00:56:32;9.40;;;4.18;;
72194;SDS011;60095;50.180;9.032;2022-07-22T00:59:01;5.10;;;4.38;;
72194;SDS011;60095;50.180;9.032;2022-07-22T01:01:28;8.10;;;4.15;;
72194;SDS011;60095;50.180;9.032;2022-07-22T01:03:54;8.30;;;5.65;;
72194;SDS011;60095;50.180;9.032;2022-07-22T01:06:21;4.28;;;3.88;;
72194;SDS011;60095;50.180;9.032;2022-07-22T01:08:47;4.65;;;4.22;;
72194;SDS011;60095;50.180;9.032;2022-07-22T01:11:14;8.95;;;4.55;;
72194;SDS011;60095;50.180;9.032;2022-07-22T01:13:41;5.10;;;4.57;;
72194;SDS011;60095;50.180;9.032;2022-07-22T01:16:09;5.70;;;4.78;;
72194;SDS011;60095;50.180;9.032;2022-07-22T01:18:36;4.15;;;3.80;;
72194;SDS011;60095;50.180;9.032;2022-07-22T01:21:04;4.95;;;4.53;;
72194;SDS011;60095;50.180;9.032;2022-07-22T01:23:31;6.10;;;5.18;;
72194;SDS011;60095;50.180;9.032;2022-07-22T01:25:57;9.45;;;7.50;;
72194;SDS011;60095;50.180;9.032;2022-07-22T01:28:24;6.32;;;5.65;;
72194;SDS011;60095;50.180;9.032;2022-07-22T01:30:50;6.70;;;5.57;;
72194;SDS011;60095;50.180;9.032;2022-07-22T01:33:16;9.23;;;5.55;;
72194;SDS011;60095;50.180;9.032;2022-07-22T01:35:43;6.13;;;5.43;;
72194;SDS011;60095;50.180;9.032;2022-07-22T01:38:11;8.55;;;5.60;;
72194;SDS011;60095;50.180;9.032;2022-07-22T01:40:37;4.97;;;4.47;;
72194;SDS011;60095;50.180;9.032;2022-07-22T01:43:04;7.55;;;6.82;;
72194;SDS011;60095;50.180;9.032;2022-07-22T01:45:30;8.45;;;5.95;;
72194;SDS011;60095;50.180;9.032;2022-07-22T01:47:56;6.35;;;5.55;;
72194;SDS011;60095;50.180;9.032;2022-07-22T01:50:23;7.55;;;5.85;;
72194;SDS011;60095;50.180;9.032;2022-07-22T01:52:50;10.73;;;6.85;;
72194;SDS011;60095;50.180;9.032;2022-07-22T01:55:18;7.18;;;5.07;;
72194;SDS011;60095;50.180;9.032;2022-07-22T01:57:44;7.40;;;5.35;;
72194;SDS011;60095;50.180;9.032;2022-07-22T02:00:11;5.25;;;4.78;;
72194;SDS011;60095;50.180;9.032;2022-07-22T02:02:38;8.57;;;5.05;;
72194;SDS011;60095;50.180;9.032;2022-07-22T02:05:04;4.68;;;4.28;;
72194;SDS011;60095;50.180;9.032;2022-07-22T02:07:31;6.50;;;5.90;;
72194;SDS011;60095;50.180;9.032;2022-07-22T02:09:58;5.20;;;4.78;;
72194;SDS011;60095;50.180;9.032;2022-07-22T02:12:25;6.10;;;5.63;;
72194;SDS011;60095;50.180;9.032;2022-07-22T02:14:52;6.45;;;5.70;;
72194;SDS011;60095;50.180;9.032;2022-07-22T02:17:18;5.80;;;5.30;;
72194;SDS011;60095;50.180;9.032;2022-07-22T02:19:45;6.57;;;5.30;;
72194;SDS011;60095;50.180;9.032;2022-07-22T02:22:11;4.40;;;4.03;;
72194;SDS011;60095;50.180;9.032;2022-07-22T02:24:38;5.03;;;4.63;;
72194;SDS011;60095;50.180;9.032;2022-07-22T02:27:04;7.30;;;6.43;;
72194;SDS011;60095;50.180;9.032;2022-07-22T02:29:33;4.55;;;4.15;;
72194;SDS011;60095;50.180;9.032;2022-07-22T02:31:59;7.50;;;5.90;;
72194;SDS011;60095;50.180;9.032;2022-07-22T02:34:26;7.65;;;6.43;;
72194;SDS011;60095;50.180;9.032;2022-07-22T02:36:52;9.77;;;7.47;;
72194;SDS011;60095;50.180;9.032;2022-07-22T02:39:19;9.35;;;6.68;;
72194;SDS011;60095;50.180;9.032;2022-07-22T02:41:45;7.50;;;6.85;;
72194;SDS011;60095;50.180;9.032;2022-07-22T02:44:11;5.75;;;5.25;;
72194;SDS011;60095;50.180;9.032;2022-07-22T02:46:39;9.45;;;6.03;;
72194;SDS011;60095;50.180;9.032;2022-07-22T02:49:06;7.95;;;7.10;;
72194;SDS011;60095;50.180;9.032;2022-07-22T02:51:32;6.10;;;5.45;;
72194;SDS011;60095;50.180;9.032;2022-07-22T02:53:58;7.50;;;5.75;;
72194;SDS011;60095;50.180;9.032;2022-07-22T02:56:25;5.63;;;5.10;;
72194;SDS011;60095;50.180;9.032;2022-07-22T02:58:51;5.00;;;4.55;;
72194;SDS011;60095;50.180;9.032;2022-07-22T03:01:18;6.07;;;5.47;;
72194;SDS011;60095;50.180;9.032;2022-07-22T03:03:46;5.50;;;4.10;;
72194;SDS011;60095;50.180;9.032;2022-07-22T03:06:12;6.25;;;5.68;;
72194;SDS011;60095;50.180;9.032;2022-07-22T03:08:38;5.55;;;5.00;;
72194;SDS011;60095;50.180;9.032;2022-07-22T03:11:05;12.30;;;7.18;;
72194;SDS011;60095;50.180;9.032;2022-07-22T03:13:31;7.07;;;6.43;;
72194;SDS011;60095;50.180;9.032;2022-07-22T03:15:58;6.32;;;5.80;;
72194;SDS011;60095;50.180;9.032;2022-07-22T03:18:24;12.00;;;7.38;;
72194;SDS011;60095;50.180;9.032;2022-07-22T03:20:52;8.10;;;5.13;;
72194;SDS011;60095;50.180;9.032;2022-07-22T03:23:18;7.85;;;7.07;;
72194;SDS011;60095;50.180;9.032;2022-07-22T03:25:45;12.73;;;5.75;;
72194;SDS011;60095;50.180;9.032;2022-07-22T03:28:11;7.60;;;6.70;;
72194;SDS011;60095;50.180;9.032;2022-07-22T03:30:37;8.32;;;7.50;;
72194;SDS011;60095;50.180;9.032;2022-07-22T03:33:04;6.13;;;5.63;;
72194;SDS011;60095;50.180;9.032;2022-07-22T03:35:30;7.95;;;7.15;;
72194;SDS011;60095;50.180;9.032;2022-07-22T03:37:58;6.05;;;5.55;;
72194;SDS011;60095;50.180;9.032;2022-07-22T03:40:24;7.30;;;6.60;;
72194;SDS011;60095;50.180;9.032;2022-07-22T03:42:50;6.32;;;5.65;;
72194;SDS011;60095;50.180;9.032;2022-07-22T03:45:17;11.23;;;7.68;;
72194;SDS011;60095;50.180;9.032;2022-07-22T03:47:43;6.43;;;5.82;;
72194;SDS011;60095;50.180;9.032;2022-07-22T03:50:09;7.15;;;6.40;;
72194;SDS011;60095;50.180;9.032;2022-07-22T03:52:37;7.22;;;6.30;;
72194;SDS011;60095;50.180;9.032;2022-07-22T03:55:06;6.78;;;6.07;;
72194;SDS011;60095;50.180;9.032;2022-07-22T03:57:32;10.52;;;7.50;;
72194;SDS011;60095;50.180;9.032;2022-07-22T03:59:58;17.05;;;7.07;;
72194;SDS011;60095;50.180;9.032;2022-07-22T04:02:25;8.95;;;8.07;;
72194;SDS011;60095;50.180;9.032;2022-07-22T04:04:51;8.30;;;6.63;;
72194;SDS011;60095;50.180;9.032;2022-07-22T04:07:17;8.73;;;6.85;;
72194;SDS011;60095;50.180;9.032;2022-07-22T04:09:44;7.07;;;6.35;;
72194;SDS011;60095;50.180;9.032;2022-07-22T04:12:11;7.30;;;5.97;;
72194;SDS011;60095;50.180;9.032;2022-07-22T04:14:38;7.07;;;6.40;;
72194;SDS011;60095;50.180;9.032;2022-07-22T04:17:04;6.43;;;5.82;;
72194;SDS011;60095;50.180;9.032;2022-07-22T04:19:30;6.05;;;5.45;;
72194;SDS011;60095;50.180;9.032;2022-07-22T04:21:57;6.70;;;6.05;;
72194;SDS011;60095;50.180;9.032;2022-07-22T04:24:23;13.55;;;6.20;;
72194;SDS011;60095;50.180;9.032;2022-07-22T04:26:49;7.95;;;6.18;;
72194;SDS011;60095;50.180;9.032;2022-07-22T04:29:17;10.77;;;7.65;;
72194;SDS011;60095;50.180;9.032;2022-07-22T04:31:43;6.88;;;6.18;;
72194;SDS011;60095;50.180;9.032;2022-07-22T04:34:09;6.78;;;5.93;;
72194;SDS011;60095;50.180;9.032;2022-07-22T04:36:36;7.75;;;6.60;;
72194;SDS011;60095;50.180;9.032;2022-07-22T04:39:02;6.93;;;5.22;;
72194;SDS011;60095;50.180;9.032;2022-07-22T04:41:30;6.38;;;4.90;;
72194;SDS011;60095;50.180;9.032;2022-07-22T04:43:56;9.68;;;7.15;;
72194;SDS011;60095;50.180;9.032;2022-07-22T04:46:24;12.63;;;5.85;;
72194;SDS011;60095;50.180;9.032;2022-07-22T04:48:50;12.40;;;5.78;;
72194;SDS011;60095;50.180;9.032;2022-07-22T04:51:16;6.45;;;5.95;;
72194;SDS011;60095;50.180;9.032;2022-07-22T04:53:43;7.75;;;6.97;;
72194;SDS011;60095;50.180;9.032;2022-07-22T04:56:09;6.53;;;5.88;;
72194;SDS011;60095;50.180;9.032;2022-07-22T04:58:35;6.43;;;5.93;;
72194;SDS011;60095;50.180;9.032;2022-07-22T05:01:02;5.57;;;5.13;;
72194;SDS011;60095;50.180;9.032;2022-07-22T05:03:29;6.78;;;6.10;;
72194;SDS011;60095;50.180;9.032;2022-07-22T05:05:56;8.20;;;7.47;;
72194;SDS011;60095;50.180;9.032;2022-07-22T05:08:22;10.18;;;7.53;;
72194;SDS011;60095;50.180;9.032;2022-07-22T05:10:48;6.68;;;6.13;;
72194;SDS011;60095;50.180;9.032;2022-07-22T05:13:15;7.05;;;6.38;;
72194;SDS011;60095;50.180;9.032;2022-07-22T05:15:41;6.60;;;5.95;;
72194;SDS011;60095;50.180;9.032;2022-07-22T05:18:09;7.30;;;6.57;;
72194;SDS011;60095;50.180;9.032;2022-07-22T05:20:37;8.80;;;6.80;;
72194;SDS011;60095;50.180;9.032;2022-07-22T05:23:03;7.15;;;5.65;;
72194;SDS011;60095;50.180;9.032;2022-07-22T05:25:30;4.43;;;4.03;;
72194;SDS011;60095;50.180;9.032;2022-07-22T05:27:56;7.10;;;5.32;;
72194;SDS011;60095;50.180;9.032;2022-07-22T05:30:23;5.50;;;4.93;;
72194;SDS011;60095;50.180;9.032;2022-07-22T05:32:49;8.23;;;4.70;;
72194;SDS011;60095;50.180;9.032;2022-07-22T05:35:15;12.45;;;4.97;;
72194;SDS011;60095;50.180;9.032;2022-07-22T05:37:43;6.63;;;5.07;;
72194;SDS011;60095;50.180;9.032;2022-07-22T05:40:09;6.43;;;5.03;;
72194;SDS011;60095;50.180;9.032;2022-07-22T05:42:36;6.13;;;5.63;;
72194;SDS011;60095;50.180;9.032;2022-07-22T05:45:03;5.32;;;4.82;;
72194;SDS011;60095;50.180;9.032;2022-07-22T05:47:29;6.38;;;5.45;;
72194;SDS011;60095;50.180;9.032;2022-07-22T05:49:55;5.35;;;4.90;;
72194;SDS011;60095;50.180;9.032;2022-07-22T05:52:22;4.97;;;4.18;;
72194;SDS011;60095;50.180;9.032;2022-07-22T05:54:49;5.68;;;5.10;;
72194;SDS011;60095;50.180;9.032;2022-07-22T05:57:16;3.90;;;3.53;;
72194;SDS011;60095;50.180;9.032;2022-07-22T05:59:42;11.27;;;5.40;;
72194;SDS011;60095;50.180;9.032;2022-07-22T06:02:08;5.30;;;4.80;;
72194;SDS011;60095;50.180;9.032;2022-07-22T06:04:35;4.47;;;4.05;;
72194;SDS011;60095;50.180;9.032;2022-07-22T06:07:01;4.25;;;3.88;;
72194;SDS011;60095;50.180;9.032;2022-07-22T06:09:28;9.20;;;5.15;;
72194;SDS011;60095;50.180;9.032;2022-07-22T06:11:56;7.00;;;5.53;;
72194;SDS011;60095;50.180;9.032;2022-07-22T06:14:22;5.93;;;5.32;;
72194;SDS011;60095;50.180;9.032;2022-07-22T06:16:48;5.22;;;4.65;;
72194;SDS011;60095;50.180;9.032;2022-07-22T06:19:14;5.55;;;5.05;;
72194;SDS011;60095;50.180;9.032;2022-07-22T06:21:41;4.43;;;4.03;;
72194;SDS011;60095;50.180;9.032;2022-07-22T06:24:07;5.70;;;4.18;;
72194;SDS011;60095;50.180;9.032;2022-07-22T06:26:33;4.30;;;3.90;;
72194;SDS011;60095;50.180;9.032;2022-07-22T06:29:01;4.28;;;3.88;;
72194;SDS011;60095;50.180;9.032;2022-07-22T06:31:28;5.05;;;3.47;;
72194;SDS011;60095;50.180;9.032;2022-07-22T06:33:54;34.72;;;17.67;;
72194;SDS011;60095;50.180;9.032;2022-07-22T06:36:21;8.00;;;4.53;;
72194;SDS011;60095;50.180;9.032;2022-07-22T06:38:47;5.95;;;4.40;;
72194;SDS011;60095;50.180;9.032;2022-07-22T06:41:13;6.18;;;5.63;;
72194;SDS011;60095;50.180;9.032;2022-07-22T06:43:43;6.45;;;4.40;;
72194;SDS011;60095;50.180;9.032;2022-07-22T06:46:11;7.15;;;5.72;;
72194;SDS011;60095;50.180;9.032;2022-07-22T06:48:37;6.47;;;4.32;;
72194;SDS011;60095;50.180;9.032;2022-07-22T06:51:03;4.82;;;3.40;;
72194;SDS011;60095;50.180;9.032;2022-07-22T06:53:30;3.22;;;2.92;;
72194;SDS011;60095;50.180;9.032;2022-07-22T06:55:56;3.35;;;2.67;;
72194;SDS011;60095;50.180;9.032;2022-07-22T06:58:22;5.88;;;4.70;;
72194;SDS011;60095;50.180;9.032;2022-07-22T07:00:49;3.75;;;2.72;;
72194;SDS011;60095;50.180;9.032;2022-07-22T07:03:17;2.55;;;2.35;;
72194;SDS011;60095;50.180;9.032;2022-07-22T07:05:43;3.95;;;3.38;;
72194;SDS011;60095;50.180;9.032;2022-07-22T07:08:09;4.05;;;3.28;;
72194;SDS011;60095;50.180;9.032;2022-07-22T07:10:36;3.25;;;2.80;;
72194;SDS011;60095;50.180;9.032;2022-07-22T07:13:02;2.70;;;2.42;;
72194;SDS011;60095;50.180;9.032;2022-07-22T07:15:28;3.40;;;2.90;;
72194;SDS011;60095;50.180;9.032;2022-07-22T07:17:55;4.40;;;3.53;;
72194;SDS011;60095;50.180;9.032;2022-07-22T07:20:23;8.20;;;2.83;;
72194;SDS011;60095;50.180;9.032;2022-07-22T07:22:50;3.65;;;2.80;;
72194;SDS011;60095;50.180;9.032;2022-07-22T07:25:16;12.10;;;4.40;;
72194;SDS011;60095;50.180;9.032;2022-07-22T07:27:43;2.88;;;2.58;;
72194;SDS011;60095;50.180;9.032;2022-07-22T07:30:09;5.20;;;3.20;;
72194;SDS011;60095;50.180;9.032;2022-07-22T07:32:36;6.03;;;3.70;;
72194;SDS011;60095;50.180;9.032;2022-07-22T07:35:02;3.72;;;3.13;;
72194;SDS011;60095;50.180;9.032;2022-07-22T07:37:30;3.50;;;3.20;;
72194;SDS011;60095;50.180;9.032;2022-07-22T07:39:57;4.78;;;2.47;;
72194;SDS011;60095;50.180;9.032;2022-07-22T07:42:23;3.65;;;1.75;;
72194;SDS011;60095;50.180;9.032;2022-07-22T07:44:50;1.60;;;1.50;;
72194;SDS011;60095;50.180;9.032;2022-07-22T07:47:16;3.65;;;3.05;;
72194;SDS011;60095;50.180;9.032;2022-07-22T07:49:45;5.18;;;2.72;;
72194;SDS011;60095;50.180;9.032;2022-07-22T07:52:12;3.08;;;2.72;;
72194;SDS011;60095;50.180;9.032;2022-07-22T07:54:39;3.15;;;2.85;;
72194;SDS011;60095;50.180;9.032;2022-07-22T07:57:06;4.15;;;3.75;;
72194;SDS011;60095;50.180;9.032;2022-07-22T07:59:33;3.03;;;2.72;;
72194;SDS011;60095;50.180;9.032;2022-07-22T08:01:59;4.75;;;3.63;;
72194;SDS011;60095;50.180;9.032;2022-07-22T08:04:26;3.15;;;2.35;;
72194;SDS011;60095;50.180;9.032;2022-07-22T08:06:53;5.78;;;2.92;;
72194;SDS011;60095;50.180;9.032;2022-07-22T08:09:19;2.10;;;1.88;;
72194;SDS011;60095;50.180;9.032;2022-07-22T08:11:47;4.63;;;2.95;;
72194;SDS011;60095;50.180;9.032;2022-07-22T08:14:13;3.60;;;2.97;;
72194;SDS011;60095;50.180;9.032;2022-07-22T08:16:40;3.10;;;2.58;;
72194;SDS011;60095;50.180;9.032;2022-07-22T08:19:06;5.43;;;3.67;;
72194;SDS011;60095;50.180;9.032;2022-07-22T08:21:32;8.18;;;3.00;;
72194;SDS011;60095;50.180;9.032;2022-07-22T08:23:59;4.95;;;3.38;;
72194;SDS011;60095;50.180;9.032;2022-07-22T08:26:25;3.30;;;2.67;;
72194;SDS011;60095;50.180;9.032;2022-07-22T08:28:53;3.15;;;2.85;;
72194;SDS011;60095;50.180;9.032;2022-07-22T08:31:19;3.08;;;2.78;;
72194;SDS011;60095;50.180;9.032;2022-07-22T08:33:46;3.08;;;2.00;;
72194;SDS011;60095;50.180;9.032;2022-07-22T08:36:12;2.55;;;2.25;;
72194;SDS011;60095;50.180;9.032;2022-07-22T08:38:38;4.85;;;3.38;;
72194;SDS011;60095;50.180;9.032;2022-07-22T08:41:05;1.83;;;1.60;;
72194;SDS011;60095;50.180;9.032;2022-07-22T08:43:32;2.05;;;1.85;;
72194;SDS011;60095;50.180;9.032;2022-07-22T08:46:02;5.50;;;3.35;;
72194;SDS011;60095;50.180;9.032;2022-07-22T08:48:29;2.67;;;2.35;;
72194;SDS011;60095;50.180;9.032;2022-07-22T08:50:55;4.00;;;2.45;;
72194;SDS011;60095;50.180;9.032;2022-07-22T08:53:22;2.30;;;1.90;;
72194;SDS011;60095;50.180;9.032;2022-07-22T08:55:48;2.38;;;2.17;;
72194;SDS011;60095;50.180;9.032;2022-07-22T08:58:15;3.22;;;1.80;;
72194;SDS011;60095;50.180;9.032;2022-07-22T09:00:42;2.50;;;2.10;;
72194;SDS011;60095;50.180;9.032;2022-07-22T09:03:19;2.63;;;2.42;;
72194;SDS011;60095;50.180;9.032;2022-07-22T09:05:47;2.45;;;2.13;;
72194;SDS011;60095;50.180;9.032;2022-07-22T09:08:13;6.88;;;2.92;;
72194;SDS011;60095;50.180;9.032;2022-07-22T09:10:40;2.35;;;2.15;;
72194;SDS011;60095;50.180;9.032;2022-07-22T09:13:06;2.78;;;2.35;;
72194;SDS011;60095;50.180;9.032;2022-07-22T09:15:34;4.05;;;2.92;;
72194;SDS011;60095;50.180;9.032;2022-07-22T09:18:01;3.78;;;2.03;;
72194;SDS011;60095;50.180;9.032;2022-07-22T09:20:29;3.97;;;2.85;;
72194;SDS011;60095;50.180;9.032;2022-07-22T09:22:55;4.35;;;2.58;;
72194;SDS011;60095;50.180;9.032;2022-07-22T09:25:23;3.00;;;1.92;;
72194;SDS011;60095;50.180;9.032;2022-07-22T09:27:51;3.53;;;2.78;;
72194;SDS011;60095;50.180;9.032;2022-07-22T09:30:18;5.22;;;2.58;;
72194;SDS011;60095;50.180;9.032;2022-07-22T09:32:45;2.78;;;2.15;;
72194;SDS011;60095;50.180;9.032;2022-07-22T09:35:12;2.42;;;1.88;;
72194;SDS011;60095;50.180;9.032;2022-07-22T09:37:47;2.20;;;1.67;;
72194;SDS011;60095;50.180;9.032;2022-07-22T09:40:14;5.43;;;3.85;;
72194;SDS011;60095;50.180;9.032;2022-07-22T09:42:44;1.23;;;1.02;;
72194;SDS011;60095;50.180;9.032;2022-07-22T09:45:11;2.53;;;2.17;;
72194;SDS011;60095;50.180;9.032;2022-07-22T09:47:37;1.80;;;1.23;;
72194;SDS011;60095;50.180;9.032;2022-07-22T09:50:09;2.50;;;1.83;;
72194;SDS011;60095;50.180;9.032;2022-07-22T09:52:39;2.58;;;2.03;;
72194;SDS011;60095;50.180;9.032;2022-07-22T09:55:08;2.83;;;1.75;;
72194;SDS011;60095;50.180;9.032;2022-07-22T09:57:35;2.63;;;1.83;;
72194;SDS011;60095;50.180;9.032;2022-07-22T10:00:02;2.90;;;2.33;;
72194;SDS011;60095;50.180;9.032;2022-07-22T10:02:30;3.38;;;2.28;;
72194;SDS011;60095;50.180;9.032;2022-07-22T10:04:57;2.40;;;2.20;;
72194;SDS011;60095;50.180;9.032;2022-07-22T10:07:24;2.00;;;1.80;;
72194;SDS011;60095;50.180;9.032;2022-07-22T10:09:51;3.70;;;2.38;;
72194;SDS011;60095;50.180;9.032;2022-07-22T10:12:20;3.20;;;2.20;;
72194;SDS011;60095;50.180;9.032;2022-07-22T10:14:47;2.00;;;1.27;;
72194;SDS011;60095;50.180;9.032;2022-07-22T10:17:14;4.30;;;2.47;;
72194;SDS011;60095;50.180;9.032;2022-07-22T10:19:41;1.58;;;1.48;;
72194;SDS011;60095;50.180;9.032;2022-07-22T10:22:21;3.70;;;2.58;;
72194;SDS011;60095;50.180;9.032;2022-07-22T10:25:08;3.22;;;2.30;;
72194;SDS011;60095;50.180;9.032;2022-07-22T10:27:44;2.20;;;1.50;;
72194;SDS011;60095;50.180;9.032;2022-07-22T10:30:10;1.52;;;1.33;;
72194;SDS011;60095;50.180;9.032;2022-07-22T10:32:37;2.53;;;1.88;;
72194;SDS011;60095;50.180;9.032;2022-07-22T10:35:20;1.73;;;1.63;;
72194;SDS011;60095;50.180;9.032;2022-07-22T10:37:47;2.00;;;1.52;;
72194;SDS011;60095;50.180;9.032;2022-07-22T10:40:15;3.33;;;1.95;;
72194;SDS011;60095;50.180;9.032;2022-07-22T10:45:30;4.55;;;2.33;;
72194;SDS011;60095;50.180;9.032;2022-07-22T10:47:57;2.10;;;1.73;;
72194;SDS011;60095;50.180;9.032;2022-07-22T10:50:38;1.48;;;1.25;;
72194;SDS011;60095;50.180;9.032;2022-07-22T10:53:05;2.25;;;1.60;;
72194;SDS011;60095;50.180;9.032;2022-07-22T10:55:32;2.00;;;1.83;;
72194;SDS011;60095;50.180;9.032;2022-07-22T10:57:58;1.92;;;1.35;;
72194;SDS011;60095;50.180;9.032;2022-07-22T11:00:25;1.90;;;1.65;;
72194;SDS011;60095;50.180;9.032;2022-07-22T11:02:52;2.97;;;2.35;;
72194;SDS011;60095;50.180;9.032;2022-07-22T11:05:24;1.95;;;1.60;;
72194;SDS011;60095;50.180;9.032;2022-07-22T11:07:50;1.83;;;1.48;;
72194;SDS011;60095;50.180;9.032;2022-07-22T11:10:17;3.25;;;2.05;;
72194;SDS011;60095;50.180;9.032;2022-07-22T11:12:44;2.53;;;2.30;;
72194;SDS011;60095;50.180;9.032;2022-07-22T11:15:10;1.52;;;1.02;;
72194;SDS011;60095;50.180;9.032;2022-07-22T11:17:37;1.85;;;1.63;;
72194;SDS011;60095;50.180;9.032;2022-07-22T11:20:05;4.13;;;2.30;;
72194;SDS011;60095;50.180;9.032;2022-07-22T11:22:32;2.22;;;1.90;;
72194;SDS011;60095;50.180;9.032;2022-07-22T11:24:59;2.50;;;2.10;;
72194;SDS011;60095;50.180;9.032;2022-07-22T11:27:26;2.10;;;1.67;;
72194;SDS011;60095;50.180;9.032;2022-07-22T11:29:52;3.55;;;1.88;;
72194;SDS011;60095;50.180;9.032;2022-07-22T11:32:20;1.98;;;1.77;;
72194;SDS011;60095;50.180;9.032;2022-07-22T11:34:46;2.95;;;1.90;;
72194;SDS011;60095;50.180;9.032;2022-07-22T11:37:15;3.65;;;1.38;;
72194;SDS011;60095;50.180;9.032;2022-07-22T11:39:41;2.05;;;1.70;;
72194;SDS011;60095;50.180;9.032;2022-07-22T11:42:08;2.13;;;1.58;;
72194;SDS011;60095;50.180;9.032;2022-07-22T11:44:35;2.20;;;1.90;;
72194;SDS011;60095;50.180;9.032;2022-07-22T11:47:02;6.40;;;2.17;;
72194;SDS011;60095;50.180;9.032;2022-07-22T11:49:29;3.13;;;1.95;;
72194;SDS011;60095;50.180;9.032;2022-07-22T11:51:55;2.88;;;1.48;;
72194;SDS011;60095;50.180;9.032;2022-07-22T11:54:23;1.45;;;1.27;;
72194;SDS011;60095;50.180;9.032;2022-07-22T11:56:50;1.90;;;1.65;;
72194;SDS011;60095;50.180;9.032;2022-07-22T11:59:16;1.70;;;1.38;;
72194;SDS011;60095;50.180;9.032;2022-07-22T12:01:44;2.75;;;1.67;;
72194;SDS011;60095;50.180;9.032;2022-07-22T12:04:11;2.65;;;1.55;;
72194;SDS011;60095;50.180;9.032;2022-07-22T12:06:39;2.05;;;1.85;;
72194;SDS011;60095;50.180;9.032;2022-07-22T12:09:06;2.40;;;1.75;;
72194;SDS011;60095;50.180;9.032;2022-07-22T12:11:35;5.07;;;1.88;;
72194;SDS011;60095;50.180;9.032;2022-07-22T12:14:05;2.72;;;1.95;;
72194;SDS011;60095;50.180;9.032;2022-07-22T12:16:32;2.47;;;1.80;;
72194;SDS011;60095;50.180;9.032;2022-07-22T12:18:59;5.35;;;2.65;;
72194;SDS011;60095;50.180;9.032;2022-07-22T12:21:26;2.45;;;2.05;;
72194;SDS011;60095;50.180;9.032;2022-07-22T12:23:53;3.97;;;2.08;;
72194;SDS011;60095;50.180;9.032;2022-07-22T12:29:13;2.63;;;2.38;;
72194;SDS011;60095;50.180;9.032;2022-07-22T12:31:41;2.20;;;2.00;;
72194;SDS011;60095;50.180;9.032;2022-07-22T12:34:07;1.65;;;1.50;;
72194;SDS011;60095;50.180;9.032;2022-07-22T18:48:19;7.80;;;3.08;;
72194;SDS011;60095;50.180;9.032;2022-07-22T18:50:45;4.90;;;2.45;;
72194;SDS011;60095;50.180;9.032;2022-07-22T18:53:11;5.07;;;3.05;;
72194;SDS011;60095;50.180;9.032;2022-07-22T19:07:49;3.83;;;3.42;;
72194;SDS011;60095;50.180;9.032;2022-07-22T19:10:16;3.60;;;1.98;;
72194;SDS011;60095;50.180;9.032;2022-07-22T19:12:42;4.00;;;3.17;;
72194;SDS011;60095;50.180;9.032;2022-07-22T19:15:09;4.60;;;2.97;;
72194;SDS011;60095;50.180;9.032;2022-07-22T19:17:35;5.60;;;2.67;;
72194;SDS011;60095;50.180;9.032;2022-07-22T19:20:02;3.53;;;3.08;;
72194;SDS011;60095;50.180;9.032;2022-07-22T19:22:28;7.38;;;2.65;;
72194;SDS011;60095;50.180;9.032;2022-07-22T19:24:56;3.08;;;2.80;;
72194;SDS011;60095;50.180;9.032;2022-07-22T19:27:22;3.67;;;2.70;;
72194;SDS011;60095;50.180;9.032;2022-07-22T19:29:48;4.18;;;3.40;;
72194;SDS011;60095;50.180;9.032;2022-07-22T19:32:15;4.88;;;3.83;;
72194;SDS011;60095;50.180;9.032;2022-07-22T19:34:42;3.53;;;3.22;;
72194;SDS011;60095;50.180;9.032;2022-07-22T19:37:08;5.03;;;4.53;;
72194;SDS011;60095;50.180;9.032;2022-07-22T19:39:34;3.65;;;2.78;;
72194;SDS011;60095;50.180;9.032;2022-07-22T19:42:02;8.82;;;5.13;;
72194;SDS011;60095;50.180;9.032;2022-07-22T19:44:28;3.28;;;2.97;;
72194;SDS011;60095;50.180;9.032;2022-07-22T19:46:55;3.85;;;3.53;;
72194;SDS011;60095;50.180;9.032;2022-07-22T19:49:21;10.40;;;2.78;;
72194;SDS011;60095;50.180;9.032;2022-07-22T19:51:48;5.47;;;4.28;;
72194;SDS011;60095;50.180;9.032;2022-07-22T19:54:14;3.63;;;3.33;;
72194;SDS011;60095;50.180;9.032;2022-07-22T19:56:40;3.03;;;2.70;;
72194;SDS011;60095;50.180;9.032;2022-07-22T19:59:08;13.13;;;3.05;;
72194;SDS011;60095;50.180;9.032;2022-07-22T20:01:35;4.35;;;3.28;;
72194;SDS011;60095;50.180;9.032;2022-07-22T20:04:01;2.50;;;2.28;;
72194;SDS011;60095;50.180;9.032;2022-07-22T20:06:27;4.22;;;3.08;;
72194;SDS011;60095;50.180;9.032;2022-07-22T20:08:53;5.25;;;3.45;;
72194;SDS011;60095;50.180;9.032;2022-07-22T20:11:21;8.98;;;3.72;;
72194;SDS011;60095;50.180;9.032;2022-07-22T20:13:47;7.85;;;3.90;;
72194;SDS011;60095;50.180;9.032;2022-07-22T20:16:15;8.23;;;3.80;;
72194;SDS011;60095;50.180;9.032;2022-07-22T20:18:41;4.60;;;3.97;;
72194;SDS011;60095;50.180;9.032;2022-07-22T20:21:07;7.55;;;4.30;;
72194;SDS011;60095;50.180;9.032;2022-07-22T20:23:34;17.45;;;5.82;;
72194;SDS011;60095;50.180;9.032;2022-07-22T20:26:00;5.88;;;4.03;;
72194;SDS011;60095;50.180;9.032;2022-07-22T20:28:26;10.27;;;3.80;;
72194;SDS011;60095;50.180;9.032;2022-07-22T20:30:53;5.80;;;4.00;;
72194;SDS011;60095;50.180;9.032;2022-07-22T20:33:20;5.90;;;3.78;;
72194;SDS011;60095;50.180;9.032;2022-07-22T20:35:47;13.38;;;5.07;;
72194;SDS011;60095;50.180;9.032;2022-07-22T20:38:13;4.03;;;3.03;;
72194;SDS011;60095;50.180;9.032;2022-07-22T20:40:40;8.52;;;5.03;;
72194;SDS011;60095;50.180;9.032;2022-07-22T20:43:06;11.00;;;5.97;;
72194;SDS011;60095;50.180;9.032;2022-07-22T20:45:32;4.97;;;4.10;;
72194;SDS011;60095;50.180;9.032;2022-07-22T20:47:59;2.42;;;2.22;;
72194;SDS011;60095;50.180;9.032;2022-07-22T20:50:27;5.28;;;4.32;;
72194;SDS011;60095;50.180;9.032;2022-07-22T20:52:53;9.65;;;5.40;;
72194;SDS011;60095;50.180;9.032;2022-07-22T20:55:19;11.93;;;4.72;;
72194;SDS011;60095;50.180;9.032;2022-07-22T20:57:46;12.55;;;5.53;;
72194;SDS011;60095;50.180;9.032;2022-07-22T21:00:12;8.55;;;3.78;;
72194;SDS011;60095;50.180;9.032;2022-07-22T21:02:39;5.65;;;3.45;;
72194;SDS011;60095;50.180;9.032;2022-07-22T21:05:06;11.82;;;4.55;;
72194;SDS011;60095;50.180;9.032;2022-07-22T21:07:33;9.40;;;3.90;;
72194;SDS011;60095;50.180;9.032;2022-07-22T21:10:00;4.90;;;4.35;;
72194;SDS011;60095;50.180;9.032;2022-07-22T21:12:26;4.55;;;4.03;;